sensor_id;sensor_type;location;lat;lon;timestamp;temperature;humidity
435;DHT22;204;48.942;9.256;2023-06-26T00:01:31;18.60;99.90
435;DHT22;204;48.942;9.256;2023-06-26T00:04:00;18.50;99.90
435;DHT22;204;48.942;9.256;2023-06-26T00:06:26;18.50;99.90
435;DHT22;204;48.942;9.256;2023-06-26T00:08:55;18.40;99.90
435;DHT22;204;48.942;9.256;2023-06-26T00:11:23;18.30;99.90
435;DHT22;204;48.942;9.256;2023-06-26T00:13:50;18.30;99.90
435;DHT22;204;48.942;9.256;2023-06-26T00:16:15;18.30;99.90
435;DHT22;204;48.942;9.256;2023-06-26T00:18:41;18.20;99.90
435;DHT22;204;48.942;9.256;2023-06-26T00:21:07;18.20;99.90
435;DHT22;204;48.942;9.256;2023-06-26T00:23:32;18.10;99.90
435;DHT22;204;48.942;9.256;2023-06-26T00:26:03;18.10;99.90
435;DHT22;204;48.942;9.256;2023-06-26T00:28:29;18.10;99.90
435;DHT22;204;48.942;9.256;2023-06-26T00:30:54;18.00;99.90
435;DHT22;204;48.942;9.256;2023-06-26T00:33:20;18.00;99.90
435;DHT22;204;48.942;9.256;2023-06-26T00:35:45;18.00;99.90
435;DHT22;204;48.942;9.256;2023-06-26T00:38:11;18.00;99.90
435;DHT22;204;48.942;9.256;2023-06-26T00:40:37;18.00;99.90
435;DHT22;204;48.942;9.256;2023-06-26T00:43:02;18.00;99.90
435;DHT22;204;48.942;9.256;2023-06-26T00:45:28;17.90;99.90
435;DHT22;204;48.942;9.256;2023-06-26T00:47:53;17.90;99.90
435;DHT22;204;48.942;9.256;2023-06-26T00:50:19;17.90;99.90
435;DHT22;204;48.942;9.256;2023-06-26T00:52:45;17.90;99.90
435;DHT22;204;48.942;9.256;2023-06-26T00:55:11;17.80;99.90
435;DHT22;204;48.942;9.256;2023-06-26T00:57:37;17.80;99.90
435;DHT22;204;48.942;9.256;2023-06-26T01:00:03;17.80;99.90
435;DHT22;204;48.942;9.256;2023-06-26T01:02:29;17.80;99.90
435;DHT22;204;48.942;9.256;2023-06-26T01:04:59;17.70;1.00
435;DHT22;204;48.942;9.256;2023-06-26T01:07:26;17.70;1.00
435;DHT22;204;48.942;9.256;2023-06-26T01:09:52;17.70;1.00
435;DHT22;204;48.942;9.256;2023-06-26T01:12:18;17.70;1.00
435;DHT22;204;48.942;9.256;2023-06-26T01:14:43;17.60;1.00
435;DHT22;204;48.942;9.256;2023-06-26T01:17:10;17.60;1.00
435;DHT22;204;48.942;9.256;2023-06-26T01:19:40;17.60;1.00
435;DHT22;204;48.942;9.256;2023-06-26T01:22:16;17.50;1.00
435;DHT22;204;48.942;9.256;2023-06-26T01:27:54;17.50;1.00
435;DHT22;204;48.942;9.256;2023-06-26T01:30:21;17.40;1.00
435;DHT22;204;48.942;9.256;2023-06-26T01:32:48;17.40;1.00
435;DHT22;204;48.942;9.256;2023-06-26T01:35:15;17.40;1.00
435;DHT22;204;48.942;9.256;2023-06-26T01:37:41;17.30;1.00
435;DHT22;204;48.942;9.256;2023-06-26T01:40:07;17.30;1.00
435;DHT22;204;48.942;9.256;2023-06-26T01:42:34;17.20;1.00
435;DHT22;204;48.942;9.256;2023-06-26T01:45:10;17.20;1.00
435;DHT22;204;48.942;9.256;2023-06-26T01:47:40;17.20;1.00
435;DHT22;204;48.942;9.256;2023-06-26T01:50:17;17.20;1.00
435;DHT22;204;48.942;9.256;2023-06-26T01:58:02;17.00;1.00
435;DHT22;204;48.942;9.256;2023-06-26T02:00:27;17.00;1.00
435;DHT22;204;48.942;9.256;2023-06-26T02:02:54;17.00;1.00
435;DHT22;204;48.942;9.256;2023-06-26T02:05:19;17.00;1.00
435;DHT22;204;48.942;9.256;2023-06-26T02:07:45;16.90;1.00
435;DHT22;204;48.942;9.256;2023-06-26T02:10:11;16.90;1.00
435;DHT22;204;48.942;9.256;2023-06-26T02:12:37;16.90;1.00
435;DHT22;204;48.942;9.256;2023-06-26T02:15:03;16.80;1.00
435;DHT22;204;48.942;9.256;2023-06-26T02:17:29;16.80;1.00
435;DHT22;204;48.942;9.256;2023-06-26T02:19:55;16.80;1.00
435;DHT22;204;48.942;9.256;2023-06-26T02:22:21;16.80;1.00
435;DHT22;204;48.942;9.256;2023-06-26T02:24:46;16.80;1.00
435;DHT22;204;48.942;9.256;2023-06-26T02:27:12;16.80;1.00
435;DHT22;204;48.942;9.256;2023-06-26T02:29:40;16.70;1.00
435;DHT22;204;48.942;9.256;2023-06-26T02:32:06;16.70;1.00
435;DHT22;204;48.942;9.256;2023-06-26T02:34:32;16.70;1.00
435;DHT22;204;48.942;9.256;2023-06-26T02:36:58;16.70;1.00
435;DHT22;204;48.942;9.256;2023-06-26T02:39:26;16.70;1.00
435;DHT22;204;48.942;9.256;2023-06-26T02:41:51;16.60;1.00
435;DHT22;204;48.942;9.256;2023-06-26T02:44:17;16.60;1.00
435;DHT22;204;48.942;9.256;2023-06-26T02:46:43;16.60;1.00
435;DHT22;204;48.942;9.256;2023-06-26T02:49:08;16.50;1.00
435;DHT22;204;48.942;9.256;2023-06-26T02:51:34;16.50;1.00
435;DHT22;204;48.942;9.256;2023-06-26T02:54:00;16.50;1.00
435;DHT22;204;48.942;9.256;2023-06-26T02:56:26;16.50;1.00
435;DHT22;204;48.942;9.256;2023-06-26T02:58:55;16.50;1.00
435;DHT22;204;48.942;9.256;2023-06-26T03:01:21;16.50;1.00
435;DHT22;204;48.942;9.256;2023-06-26T03:03:46;16.50;1.00
435;DHT22;204;48.942;9.256;2023-06-26T03:06:13;16.50;1.00
435;DHT22;204;48.942;9.256;2023-06-26T03:08:39;16.40;1.00
435;DHT22;204;48.942;9.256;2023-06-26T03:11:06;16.50;1.00
435;DHT22;204;48.942;9.256;2023-06-26T03:13:32;16.40;1.00
435;DHT22;204;48.942;9.256;2023-06-26T03:15:58;16.40;1.00
435;DHT22;204;48.942;9.256;2023-06-26T03:18:24;16.40;1.00
435;DHT22;204;48.942;9.256;2023-06-26T03:20:49;16.40;1.00
435;DHT22;204;48.942;9.256;2023-06-26T03:23:15;16.40;1.00
435;DHT22;204;48.942;9.256;2023-06-26T03:25:40;16.30;1.00
435;DHT22;204;48.942;9.256;2023-06-26T03:28:06;16.40;1.00
435;DHT22;204;48.942;9.256;2023-06-26T03:30:31;16.30;1.00
435;DHT22;204;48.942;9.256;2023-06-26T03:32:57;16.30;1.00
435;DHT22;204;48.942;9.256;2023-06-26T03:35:22;16.30;1.00
435;DHT22;204;48.942;9.256;2023-06-26T03:37:49;16.30;1.00
435;DHT22;204;48.942;9.256;2023-06-26T03:40:14;16.30;1.00
435;DHT22;204;48.942;9.256;2023-06-26T03:42:40;16.30;1.00
435;DHT22;204;48.942;9.256;2023-06-26T03:45:06;16.30;1.00
435;DHT22;204;48.942;9.256;2023-06-26T03:47:32;16.40;1.00
435;DHT22;204;48.942;9.256;2023-06-26T03:49:57;16.40;1.00
435;DHT22;204;48.942;9.256;2023-06-26T03:52:23;16.40;1.00
435;DHT22;204;48.942;9.256;2023-06-26T03:54:49;16.40;1.00
435;DHT22;204;48.942;9.256;2023-06-26T03:57:14;16.50;1.00
435;DHT22;204;48.942;9.256;2023-06-26T03:59:40;16.50;1.00
435;DHT22;204;48.942;9.256;2023-06-26T04:02:05;16.80;1.00
435;DHT22;204;48.942;9.256;2023-06-26T04:04:31;17.10;1.00
435;DHT22;204;48.942;9.256;2023-06-26T04:06:56;17.50;1.00
435;DHT22;204;48.942;9.256;2023-06-26T04:09:24;18.00;1.00
435;DHT22;204;48.942;9.256;2023-06-26T04:11:50;18.40;1.00
435;DHT22;204;48.942;9.256;2023-06-26T04:14:16;18.80;99.90
435;DHT22;204;48.942;9.256;2023-06-26T04:16:41;19.10;99.90
435;DHT22;204;48.942;9.256;2023-06-26T04:19:07;19.40;99.90
435;DHT22;204;48.942;9.256;2023-06-26T04:21:35;19.60;99.90
435;DHT22;204;48.942;9.256;2023-06-26T04:24:01;19.90;99.90
435;DHT22;204;48.942;9.256;2023-06-26T04:26:26;20.10;99.90
435;DHT22;204;48.942;9.256;2023-06-26T04:28:53;20.20;99.90
435;DHT22;204;48.942;9.256;2023-06-26T04:31:19;20.40;99.90
435;DHT22;204;48.942;9.256;2023-06-26T04:33:44;20.50;99.90
435;DHT22;204;48.942;9.256;2023-06-26T04:36:10;20.70;99.90
435;DHT22;204;48.942;9.256;2023-06-26T04:38:36;20.90;99.90
435;DHT22;204;48.942;9.256;2023-06-26T04:41:02;21.00;99.90
435;DHT22;204;48.942;9.256;2023-06-26T04:43:28;21.20;99.90
435;DHT22;204;48.942;9.256;2023-06-26T04:45:53;21.30;99.90
435;DHT22;204;48.942;9.256;2023-06-26T04:48:19;21.50;99.90
435;DHT22;204;48.942;9.256;2023-06-26T04:50:45;21.60;99.90
435;DHT22;204;48.942;9.256;2023-06-26T04:53:18;21.70;99.90
435;DHT22;204;48.942;9.256;2023-06-26T04:55:43;21.80;99.90
435;DHT22;204;48.942;9.256;2023-06-26T04:58:09;22.00;99.90
435;DHT22;204;48.942;9.256;2023-06-26T05:00:34;22.20;99.90
435;DHT22;204;48.942;9.256;2023-06-26T05:03:01;22.40;99.90
435;DHT22;204;48.942;9.256;2023-06-26T05:05:29;22.50;99.90
435;DHT22;204;48.942;9.256;2023-06-26T05:07:55;22.70;99.90
435;DHT22;204;48.942;9.256;2023-06-26T05:10:21;22.80;99.90
435;DHT22;204;48.942;9.256;2023-06-26T05:12:47;23.00;99.90
435;DHT22;204;48.942;9.256;2023-06-26T05:15:12;23.20;99.90
435;DHT22;204;48.942;9.256;2023-06-26T05:17:38;23.50;99.90
435;DHT22;204;48.942;9.256;2023-06-26T05:20:04;23.70;99.90
435;DHT22;204;48.942;9.256;2023-06-26T05:22:32;23.80;99.90
435;DHT22;204;48.942;9.256;2023-06-26T05:24:59;24.00;99.90
435;DHT22;204;48.942;9.256;2023-06-26T05:27:26;24.10;99.90
435;DHT22;204;48.942;9.256;2023-06-26T05:29:52;24.30;99.90
435;DHT22;204;48.942;9.256;2023-06-26T05:32:18;24.40;99.90
435;DHT22;204;48.942;9.256;2023-06-26T05:34:47;24.60;99.90
435;DHT22;204;48.942;9.256;2023-06-26T05:37:19;24.70;99.90
435;DHT22;204;48.942;9.256;2023-06-26T05:39:46;24.80;99.90
435;DHT22;204;48.942;9.256;2023-06-26T05:42:12;24.90;99.90
435;DHT22;204;48.942;9.256;2023-06-26T05:44:38;25.10;99.90
435;DHT22;204;48.942;9.256;2023-06-26T05:47:03;25.20;99.90
435;DHT22;204;48.942;9.256;2023-06-26T05:49:29;25.10;99.90
435;DHT22;204;48.942;9.256;2023-06-26T05:51:55;25.20;99.90
435;DHT22;204;48.942;9.256;2023-06-26T05:54:21;25.40;99.90
435;DHT22;204;48.942;9.256;2023-06-26T05:56:48;25.50;99.90
435;DHT22;204;48.942;9.256;2023-06-26T05:59:14;25.70;99.90
435;DHT22;204;48.942;9.256;2023-06-26T06:01:40;25.70;99.90
435;DHT22;204;48.942;9.256;2023-06-26T06:04:06;25.80;99.90
435;DHT22;204;48.942;9.256;2023-06-26T06:06:32;25.90;99.90
435;DHT22;204;48.942;9.256;2023-06-26T06:08:57;25.90;99.90
435;DHT22;204;48.942;9.256;2023-06-26T06:11:23;25.80;99.90
435;DHT22;204;48.942;9.256;2023-06-26T06:13:48;25.90;99.90
435;DHT22;204;48.942;9.256;2023-06-26T06:16:14;26.00;99.90
435;DHT22;204;48.942;9.256;2023-06-26T06:18:40;26.00;99.90
435;DHT22;204;48.942;9.256;2023-06-26T06:21:05;26.10;99.90
435;DHT22;204;48.942;9.256;2023-06-26T06:23:31;26.30;99.90
435;DHT22;204;48.942;9.256;2023-06-26T06:25:56;26.50;99.90
435;DHT22;204;48.942;9.256;2023-06-26T06:28:22;26.80;99.90
435;DHT22;204;48.942;9.256;2023-06-26T06:30:48;27.00;99.90
435;DHT22;204;48.942;9.256;2023-06-26T06:33:14;27.20;99.90
435;DHT22;204;48.942;9.256;2023-06-26T06:35:39;27.50;99.90
435;DHT22;204;48.942;9.256;2023-06-26T06:38:05;27.70;99.90
435;DHT22;204;48.942;9.256;2023-06-26T06:40:31;28.00;99.90
435;DHT22;204;48.942;9.256;2023-06-26T06:42:56;28.10;99.90
435;DHT22;204;48.942;9.256;2023-06-26T06:45:22;28.30;99.90
435;DHT22;204;48.942;9.256;2023-06-26T06:47:47;28.50;99.90
435;DHT22;204;48.942;9.256;2023-06-26T06:50:13;28.60;99.90
435;DHT22;204;48.942;9.256;2023-06-26T06:52:42;28.70;99.90
435;DHT22;204;48.942;9.256;2023-06-26T06:55:08;28.80;99.90
435;DHT22;204;48.942;9.256;2023-06-26T06:57:38;28.90;99.90
435;DHT22;204;48.942;9.256;2023-06-26T07:00:08;28.90;99.90
435;DHT22;204;48.942;9.256;2023-06-26T07:02:36;28.80;99.90
435;DHT22;204;48.942;9.256;2023-06-26T07:05:03;28.70;99.90
435;DHT22;204;48.942;9.256;2023-06-26T07:07:33;28.60;99.90
435;DHT22;204;48.942;9.256;2023-06-26T07:10:01;28.60;99.90
435;DHT22;204;48.942;9.256;2023-06-26T07:12:26;28.60;99.90
435;DHT22;204;48.942;9.256;2023-06-26T07:14:52;28.70;99.90
435;DHT22;204;48.942;9.256;2023-06-26T07:17:19;28.70;99.90
435;DHT22;204;48.942;9.256;2023-06-26T07:19:45;28.70;99.90
435;DHT22;204;48.942;9.256;2023-06-26T07:22:10;28.70;99.90
435;DHT22;204;48.942;9.256;2023-06-26T07:24:36;28.60;99.90
435;DHT22;204;48.942;9.256;2023-06-26T07:27:02;28.60;99.90
435;DHT22;204;48.942;9.256;2023-06-26T07:29:27;28.70;99.90
435;DHT22;204;48.942;9.256;2023-06-26T07:31:53;28.90;99.90
435;DHT22;204;48.942;9.256;2023-06-26T07:34:18;29.00;99.90
435;DHT22;204;48.942;9.256;2023-06-26T07:36:44;29.10;99.90
435;DHT22;204;48.942;9.256;2023-06-26T07:39:10;29.30;99.90
435;DHT22;204;48.942;9.256;2023-06-26T07:41:36;29.30;99.90
435;DHT22;204;48.942;9.256;2023-06-26T07:44:01;29.40;99.90
435;DHT22;204;48.942;9.256;2023-06-26T07:46:27;29.40;99.90
435;DHT22;204;48.942;9.256;2023-06-26T07:48:53;29.50;99.90
435;DHT22;204;48.942;9.256;2023-06-26T07:51:18;29.50;99.90
435;DHT22;204;48.942;9.256;2023-06-26T07:53:44;29.60;99.90
435;DHT22;204;48.942;9.256;2023-06-26T07:56:09;29.60;99.90
435;DHT22;204;48.942;9.256;2023-06-26T07:58:35;29.60;99.90
435;DHT22;204;48.942;9.256;2023-06-26T08:01:01;29.70;99.90
435;DHT22;204;48.942;9.256;2023-06-26T08:03:26;29.80;99.90
435;DHT22;204;48.942;9.256;2023-06-26T08:05:52;29.80;99.90
435;DHT22;204;48.942;9.256;2023-06-26T08:08:17;29.90;99.90
435;DHT22;204;48.942;9.256;2023-06-26T08:10:43;29.90;99.90
435;DHT22;204;48.942;9.256;2023-06-26T08:13:08;29.70;99.90
435;DHT22;204;48.942;9.256;2023-06-26T08:15:34;29.60;99.90
435;DHT22;204;48.942;9.256;2023-06-26T08:18:00;29.60;99.90
435;DHT22;204;48.942;9.256;2023-06-26T08:20:25;29.70;99.90
435;DHT22;204;48.942;9.256;2023-06-26T08:22:51;29.70;99.90
435;DHT22;204;48.942;9.256;2023-06-26T08:25:18;29.60;99.90
435;DHT22;204;48.942;9.256;2023-06-26T08:27:44;29.60;99.90
435;DHT22;204;48.942;9.256;2023-06-26T08:30:32;29.70;99.90
435;DHT22;204;48.942;9.256;2023-06-26T08:32:57;29.80;99.90
435;DHT22;204;48.942;9.256;2023-06-26T08:35:23;29.80;99.90
435;DHT22;204;48.942;9.256;2023-06-26T08:37:49;29.80;99.90
435;DHT22;204;48.942;9.256;2023-06-26T08:40:17;29.90;99.90
435;DHT22;204;48.942;9.256;2023-06-26T08:42:44;30.00;99.90
435;DHT22;204;48.942;9.256;2023-06-26T08:45:10;30.00;99.90
435;DHT22;204;48.942;9.256;2023-06-26T08:47:36;30.10;99.90
435;DHT22;204;48.942;9.256;2023-06-26T08:50:12;30.20;99.90
435;DHT22;204;48.942;9.256;2023-06-26T08:52:59;30.20;99.90
435;DHT22;204;48.942;9.256;2023-06-26T08:55:27;30.20;99.90
435;DHT22;204;48.942;9.256;2023-06-26T08:57:54;30.30;99.90
435;DHT22;204;48.942;9.256;2023-06-26T09:00:20;30.30;99.90
435;DHT22;204;48.942;9.256;2023-06-26T09:02:46;30.40;99.90
435;DHT22;204;48.942;9.256;2023-06-26T09:05:12;30.50;99.90
435;DHT22;204;48.942;9.256;2023-06-26T09:07:37;30.50;99.90
435;DHT22;204;48.942;9.256;2023-06-26T09:10:03;30.50;99.90
435;DHT22;204;48.942;9.256;2023-06-26T09:12:29;30.50;99.90
435;DHT22;204;48.942;9.256;2023-06-26T09:14:55;30.60;99.90
435;DHT22;204;48.942;9.256;2023-06-26T09:17:25;30.60;99.90
435;DHT22;204;48.942;9.256;2023-06-26T09:19:54;30.70;99.90
435;DHT22;204;48.942;9.256;2023-06-26T09:22:20;30.80;99.90
435;DHT22;204;48.942;9.256;2023-06-26T09:24:47;30.80;99.90
435;DHT22;204;48.942;9.256;2023-06-26T09:27:12;30.80;99.90
435;DHT22;204;48.942;9.256;2023-06-26T09:29:38;30.90;99.90
435;DHT22;204;48.942;9.256;2023-06-26T09:32:04;30.90;99.90
435;DHT22;204;48.942;9.256;2023-06-26T09:34:31;31.00;99.90
435;DHT22;204;48.942;9.256;2023-06-26T09:36:58;31.00;99.90
435;DHT22;204;48.942;9.256;2023-06-26T09:39:24;31.10;99.90
435;DHT22;204;48.942;9.256;2023-06-26T09:41:50;31.00;99.90
435;DHT22;204;48.942;9.256;2023-06-26T09:44:15;31.00;99.90
435;DHT22;204;48.942;9.256;2023-06-26T09:46:42;31.10;99.90
435;DHT22;204;48.942;9.256;2023-06-26T09:49:11;31.10;99.90
435;DHT22;204;48.942;9.256;2023-06-26T09:51:38;31.20;99.90
435;DHT22;204;48.942;9.256;2023-06-26T09:54:05;31.30;99.90
435;DHT22;204;48.942;9.256;2023-06-26T09:56:32;31.30;99.90
435;DHT22;204;48.942;9.256;2023-06-26T09:59:00;31.40;99.90
435;DHT22;204;48.942;9.256;2023-06-26T10:01:27;31.30;99.90
435;DHT22;204;48.942;9.256;2023-06-26T10:03:53;31.40;99.90
435;DHT22;204;48.942;9.256;2023-06-26T10:06:26;31.40;99.90
435;DHT22;204;48.942;9.256;2023-06-26T10:08:53;31.30;99.90
435;DHT22;204;48.942;9.256;2023-06-26T10:11:21;31.20;99.90
435;DHT22;204;48.942;9.256;2023-06-26T10:13:50;31.30;99.90
435;DHT22;204;48.942;9.256;2023-06-26T10:16:23;31.30;99.90
435;DHT22;204;48.942;9.256;2023-06-26T10:18:53;31.40;99.90
435;DHT22;204;48.942;9.256;2023-06-26T10:21:20;31.40;99.90
435;DHT22;204;48.942;9.256;2023-06-26T10:23:48;31.40;99.90
435;DHT22;204;48.942;9.256;2023-06-26T10:26:16;31.50;99.90
435;DHT22;204;48.942;9.256;2023-06-26T10:28:44;31.60;99.90
435;DHT22;204;48.942;9.256;2023-06-26T10:31:11;31.60;99.90
435;DHT22;204;48.942;9.256;2023-06-26T10:33:37;31.50;99.90
435;DHT22;204;48.942;9.256;2023-06-26T10:36:35;31.50;99.90
435;DHT22;204;48.942;9.256;2023-06-26T10:39:05;31.50;99.90
435;DHT22;204;48.942;9.256;2023-06-26T10:41:38;31.50;99.90
435;DHT22;204;48.942;9.256;2023-06-26T10:44:09;31.50;99.90
435;DHT22;204;48.942;9.256;2023-06-26T10:46:55;31.50;99.90
435;DHT22;204;48.942;9.256;2023-06-26T10:49:25;31.60;99.90
435;DHT22;204;48.942;9.256;2023-06-26T10:51:52;31.60;99.90
435;DHT22;204;48.942;9.256;2023-06-26T10:54:19;31.40;99.90
435;DHT22;204;48.942;9.256;2023-06-26T10:59:17;31.10;99.90
435;DHT22;204;48.942;9.256;2023-06-26T11:01:44;31.10;99.90
435;DHT22;204;48.942;9.256;2023-06-26T11:04:12;31.10;99.90
435;DHT22;204;48.942;9.256;2023-06-26T11:06:40;31.10;99.90
435;DHT22;204;48.942;9.256;2023-06-26T11:09:10;31.20;99.90
435;DHT22;204;48.942;9.256;2023-06-26T11:14:23;31.30;99.90
435;DHT22;204;48.942;9.256;2023-06-26T11:16:49;31.60;99.90
435;DHT22;204;48.942;9.256;2023-06-26T11:19:17;31.80;99.90
435;DHT22;204;48.942;9.256;2023-06-26T11:21:43;31.70;99.90
435;DHT22;204;48.942;9.256;2023-06-26T11:24:10;31.50;99.90
435;DHT22;204;48.942;9.256;2023-06-26T11:26:40;31.60;99.90
435;DHT22;204;48.942;9.256;2023-06-26T11:29:06;31.70;99.90
435;DHT22;204;48.942;9.256;2023-06-26T11:31:35;31.70;99.90
435;DHT22;204;48.942;9.256;2023-06-26T11:34:07;31.50;99.90
435;DHT22;204;48.942;9.256;2023-06-26T11:36:34;31.50;99.90
435;DHT22;204;48.942;9.256;2023-06-26T11:39:03;31.40;99.90
435;DHT22;204;48.942;9.256;2023-06-26T11:41:32;31.40;99.90
435;DHT22;204;48.942;9.256;2023-06-26T11:44:02;31.40;99.90
435;DHT22;204;48.942;9.256;2023-06-26T11:46:28;31.40;99.90
435;DHT22;204;48.942;9.256;2023-06-26T11:48:54;31.50;99.90
435;DHT22;204;48.942;9.256;2023-06-26T11:51:20;31.60;99.90
435;DHT22;204;48.942;9.256;2023-06-26T11:53:46;31.70;99.90
435;DHT22;204;48.942;9.256;2023-06-26T11:56:14;31.80;99.90
435;DHT22;204;48.942;9.256;2023-06-26T12:01:35;32.20;99.90
435;DHT22;204;48.942;9.256;2023-06-26T12:04:03;32.20;99.90
435;DHT22;204;48.942;9.256;2023-06-26T12:06:31;32.20;99.90
435;DHT22;204;48.942;9.256;2023-06-26T12:08:59;32.10;99.90
435;DHT22;204;48.942;9.256;2023-06-26T12:11:26;32.20;99.90
435;DHT22;204;48.942;9.256;2023-06-26T12:13:54;32.20;99.90
435;DHT22;204;48.942;9.256;2023-06-26T12:16:21;32.10;99.90
435;DHT22;204;48.942;9.256;2023-06-26T12:18:47;32.00;99.90
435;DHT22;204;48.942;9.256;2023-06-26T12:21:33;31.80;99.90
435;DHT22;204;48.942;9.256;2023-06-26T12:24:00;31.50;99.90
435;DHT22;204;48.942;9.256;2023-06-26T12:26:27;31.20;99.90
435;DHT22;204;48.942;9.256;2023-06-26T12:28:53;31.10;99.90
435;DHT22;204;48.942;9.256;2023-06-26T12:31:21;31.10;99.90
435;DHT22;204;48.942;9.256;2023-06-26T12:33:47;31.10;99.90
435;DHT22;204;48.942;9.256;2023-06-26T12:36:13;31.00;99.90
435;DHT22;204;48.942;9.256;2023-06-26T12:38:44;31.00;99.90
435;DHT22;204;48.942;9.256;2023-06-26T12:41:14;31.10;99.90
435;DHT22;204;48.942;9.256;2023-06-26T12:43:43;31.00;99.90
435;DHT22;204;48.942;9.256;2023-06-26T12:46:08;30.90;99.90
435;DHT22;204;48.942;9.256;2023-06-26T12:48:54;30.80;99.90
435;DHT22;204;48.942;9.256;2023-06-26T12:51:20;30.80;99.90
435;DHT22;204;48.942;9.256;2023-06-26T12:53:52;30.90;99.90
435;DHT22;204;48.942;9.256;2023-06-26T12:56:17;30.90;99.90
435;DHT22;204;48.942;9.256;2023-06-26T12:58:43;31.00;99.90
435;DHT22;204;48.942;9.256;2023-06-26T13:01:09;31.00;99.90
435;DHT22;204;48.942;9.256;2023-06-26T13:03:40;31.10;99.90
435;DHT22;204;48.942;9.256;2023-06-26T13:06:06;31.10;99.90
435;DHT22;204;48.942;9.256;2023-06-26T13:08:33;31.10;99.90
435;DHT22;204;48.942;9.256;2023-06-26T13:10:59;31.00;99.90
435;DHT22;204;48.942;9.256;2023-06-26T13:13:24;30.90;99.90
435;DHT22;204;48.942;9.256;2023-06-26T13:15:50;30.90;99.90
435;DHT22;204;48.942;9.256;2023-06-26T13:18:15;31.00;99.90
435;DHT22;204;48.942;9.256;2023-06-26T13:20:41;31.10;99.90
435;DHT22;204;48.942;9.256;2023-06-26T13:23:06;31.20;99.90
435;DHT22;204;48.942;9.256;2023-06-26T13:25:33;31.10;99.90
435;DHT22;204;48.942;9.256;2023-06-26T13:27:58;31.00;99.90
435;DHT22;204;48.942;9.256;2023-06-26T13:30:24;31.10;99.90
435;DHT22;204;48.942;9.256;2023-06-26T13:32:50;31.10;99.90
435;DHT22;204;48.942;9.256;2023-06-26T13:35:15;31.10;99.90
435;DHT22;204;48.942;9.256;2023-06-26T13:37:41;31.20;99.90
435;DHT22;204;48.942;9.256;2023-06-26T13:40:08;31.20;99.90
435;DHT22;204;48.942;9.256;2023-06-26T13:42:34;31.20;99.90
435;DHT22;204;48.942;9.256;2023-06-26T13:45:00;31.30;99.90
435;DHT22;204;48.942;9.256;2023-06-26T13:47:26;31.10;99.90
435;DHT22;204;48.942;9.256;2023-06-26T13:49:51;31.00;99.90
435;DHT22;204;48.942;9.256;2023-06-26T13:52:17;30.90;99.90
435;DHT22;204;48.942;9.256;2023-06-26T13:54:42;30.90;99.90
435;DHT22;204;48.942;9.256;2023-06-26T13:57:08;30.90;99.90
435;DHT22;204;48.942;9.256;2023-06-26T13:59:36;30.90;99.90
435;DHT22;204;48.942;9.256;2023-06-26T14:02:02;30.90;99.90
435;DHT22;204;48.942;9.256;2023-06-26T14:04:27;31.00;99.90
435;DHT22;204;48.942;9.256;2023-06-26T14:06:53;30.90;99.90
435;DHT22;204;48.942;9.256;2023-06-26T14:09:19;30.80;99.90
435;DHT22;204;48.942;9.256;2023-06-26T14:11:44;30.80;99.90
435;DHT22;204;48.942;9.256;2023-06-26T14:14:10;30.60;99.90
435;DHT22;204;48.942;9.256;2023-06-26T14:16:36;30.70;99.90
435;DHT22;204;48.942;9.256;2023-06-26T14:19:01;30.80;99.90
435;DHT22;204;48.942;9.256;2023-06-26T14:21:27;30.80;99.90
435;DHT22;204;48.942;9.256;2023-06-26T14:23:54;30.80;99.90
435;DHT22;204;48.942;9.256;2023-06-26T14:26:20;30.80;99.90
435;DHT22;204;48.942;9.256;2023-06-26T14:28:46;30.90;99.90
435;DHT22;204;48.942;9.256;2023-06-26T14:31:12;30.90;99.90
435;DHT22;204;48.942;9.256;2023-06-26T14:33:37;30.80;99.90
435;DHT22;204;48.942;9.256;2023-06-26T14:36:03;30.90;99.90
435;DHT22;204;48.942;9.256;2023-06-26T14:38:28;30.90;99.90
435;DHT22;204;48.942;9.256;2023-06-26T14:40:54;30.90;99.90
435;DHT22;204;48.942;9.256;2023-06-26T14:43:20;30.90;99.90
435;DHT22;204;48.942;9.256;2023-06-26T14:45:46;30.80;99.90
435;DHT22;204;48.942;9.256;2023-06-26T14:48:11;30.90;99.90
435;DHT22;204;48.942;9.256;2023-06-26T14:50:37;30.90;99.90
435;DHT22;204;48.942;9.256;2023-06-26T14:53:02;30.90;99.90
435;DHT22;204;48.942;9.256;2023-06-26T14:55:28;30.90;99.90
435;DHT22;204;48.942;9.256;2023-06-26T14:57:54;30.70;99.90
435;DHT22;204;48.942;9.256;2023-06-26T15:00:19;30.70;99.90
435;DHT22;204;48.942;9.256;2023-06-26T15:02:45;30.80;99.90
435;DHT22;204;48.942;9.256;2023-06-26T15:05:11;30.90;99.90
435;DHT22;204;48.942;9.256;2023-06-26T15:07:36;31.00;99.90
435;DHT22;204;48.942;9.256;2023-06-26T15:10:02;31.20;99.90
435;DHT22;204;48.942;9.256;2023-06-26T15:12:28;31.30;99.90
435;DHT22;204;48.942;9.256;2023-06-26T15:14:53;31.30;99.90
435;DHT22;204;48.942;9.256;2023-06-26T15:17:19;31.40;99.90
435;DHT22;204;48.942;9.256;2023-06-26T15:19:44;31.40;99.90
435;DHT22;204;48.942;9.256;2023-06-26T15:22:10;31.50;99.90
435;DHT22;204;48.942;9.256;2023-06-26T15:24:35;31.50;99.90
435;DHT22;204;48.942;9.256;2023-06-26T15:27:01;31.50;99.90
435;DHT22;204;48.942;9.256;2023-06-26T15:29:27;31.50;99.90
435;DHT22;204;48.942;9.256;2023-06-26T15:31:53;31.50;99.90
435;DHT22;204;48.942;9.256;2023-06-26T15:34:19;31.50;99.90
435;DHT22;204;48.942;9.256;2023-06-26T15:36:45;31.60;99.90
435;DHT22;204;48.942;9.256;2023-06-26T15:39:10;31.70;99.90
435;DHT22;204;48.942;9.256;2023-06-26T15:41:36;31.80;99.90
435;DHT22;204;48.942;9.256;2023-06-26T15:44:02;31.70;99.90
435;DHT22;204;48.942;9.256;2023-06-26T15:46:28;31.50;99.90
435;DHT22;204;48.942;9.256;2023-06-26T15:48:53;31.50;99.90
435;DHT22;204;48.942;9.256;2023-06-26T15:51:19;31.50;99.90
435;DHT22;204;48.942;9.256;2023-06-26T15:53:44;31.40;99.90
435;DHT22;204;48.942;9.256;2023-06-26T15:56:11;31.30;99.90
435;DHT22;204;48.942;9.256;2023-06-26T15:58:37;31.10;99.90
435;DHT22;204;48.942;9.256;2023-06-26T16:01:12;30.90;99.90
435;DHT22;204;48.942;9.256;2023-06-26T16:03:40;30.90;99.90
435;DHT22;204;48.942;9.256;2023-06-26T16:06:07;30.70;99.90
435;DHT22;204;48.942;9.256;2023-06-26T16:08:34;30.60;99.90
435;DHT22;204;48.942;9.256;2023-06-26T16:11:00;30.70;99.90
435;DHT22;204;48.942;9.256;2023-06-26T16:13:26;30.60;99.90
435;DHT22;204;48.942;9.256;2023-06-26T16:15:52;30.60;99.90
435;DHT22;204;48.942;9.256;2023-06-26T16:18:18;30.40;99.90
435;DHT22;204;48.942;9.256;2023-06-26T16:20:43;30.20;99.90
435;DHT22;204;48.942;9.256;2023-06-26T16:23:09;30.20;99.90
435;DHT22;204;48.942;9.256;2023-06-26T16:25:35;30.10;99.90
435;DHT22;204;48.942;9.256;2023-06-26T16:28:01;30.20;99.90
435;DHT22;204;48.942;9.256;2023-06-26T16:30:26;30.30;99.90
435;DHT22;204;48.942;9.256;2023-06-26T16:32:52;30.30;99.90
435;DHT22;204;48.942;9.256;2023-06-26T16:35:19;30.30;99.90
435;DHT22;204;48.942;9.256;2023-06-26T16:37:44;30.20;99.90
435;DHT22;204;48.942;9.256;2023-06-26T16:40:10;30.10;99.90
435;DHT22;204;48.942;9.256;2023-06-26T16:42:36;30.00;99.90
435;DHT22;204;48.942;9.256;2023-06-26T16:45:01;30.10;99.90
435;DHT22;204;48.942;9.256;2023-06-26T16:47:27;30.10;99.90
435;DHT22;204;48.942;9.256;2023-06-26T16:49:53;30.00;99.90